Time;durP1;ratioP1;P1;durP2;ratioP2;P2;SDS_P1;SDS_P2;PMS_P1;PMS_P2;Temp;Humidity;BMP_temperature;BMP_pressure;BME280_temperature;BME280_humidity;BME280_pressure;Samples;Min_cycle;Max_cycle;Signal;HPM_P1;HPM_P2
2022/12/30 00:39:29;;;;;;;0.20;0.10;;;14.60;99.90;;;;;;20979115;28;20402;-71
2022/12/30 00:59:56;;;;;;;0.20;0.10;;;13.20;99.90;;;;;;20978889;28;20484;-71
2022/12/30 01:10:00;;;;;;;0.20;0.10;;;13.00;99.90;;;;;;20978882;28;20984;-71
2022/12/30 01:20:06;;;;;;;0.20;0.10;;;12.90;99.90;;;;;;20978870;28;20446;-72
2022/12/30 01:30:10;;;;;;;0.20;0.10;;;12.70;99.90;;;;;;20978342;28;20792;-72
2022/12/30 01:40:15;;;;;;;0.20;0.00;;;12.40;99.90;;;;;;20978673;28;20914;-72
2022/12/30 01:50:43;;;;;;;0.20;0.00;;;11.80;99.90;;;;;;20976075;28;20410;-71
2022/12/30 02:00:48;;;;;;;0.20;0.10;;;11.20;99.90;;;;;;20976954;28;20904;-71
2022/12/30 02:10:55;;;;;;;0.20;0.10;;;11.30;99.90;;;;;;20924086;28;20462;-71
2022/12/30 02:21:23;;;;;;;0.20;0.10;;;11.60;99.90;;;;;;20884635;28;20469;-71
2022/12/30 02:31:38;;;;;;;0.20;0.10;;;11.00;99.90;;;;;;20889786;28;20426;-71
2022/12/30 02:52:16;;;;;;;0.20;0.10;;;10.90;99.90;;;;;;20935673;28;20406;-72
2022/12/30 03:13:19;;;;;;;0.20;0.07;;;10.70;99.90;;;;;;20987640;28;20723;-72
2022/12/30 03:33:48;;;;;;;0.20;0.10;;;10.60;99.90;;;;;;20984716;28;20769;-72
2022/12/30 03:43:53;;;;;;;0.20;0.10;;;10.30;99.90;;;;;;20984864;28;20406;-72
2022/12/30 03:53:59;;;;;;;0.20;0.10;;;12.00;99.90;;;;;;20983753;28;20398;-74
2022/12/30 04:04:03;;;;;;;0.20;0.10;;;13.10;99.90;;;;;;20965502;28;20409;-73
2022/12/30 04:14:08;;;;;;;0.20;0.10;;;13.10;99.90;;;;;;20982225;28;20394;-72
2022/12/30 04:24:12;;;;;;;0.20;0.10;;;12.40;99.90;;;;;;20981756;28;20409;-72
2022/12/30 04:34:17;;;;;;;0.20;0.10;;;12.30;99.90;;;;;;20981031;28;20434;-73
2022/12/30 04:44:21;;;;;;;0.20;0.10;;;12.00;99.90;;;;;;20962171;28;20406;-72
2022/12/30 04:54:26;;;;;;;0.20;0.10;;;12.30;99.90;;;;;;20961965;28;20406;-72
2022/12/30 05:04:30;;;;;;;0.20;0.10;;;12.10;99.90;;;;;;20979847;28;20418;-72
2022/12/30 05:14:35;;;;;;;0.20;0.00;;;11.80;99.90;;;;;;20977815;28;20401;-73
2022/12/30 05:35:01;;;;;;;0.20;0.10;;;11.30;99.90;;;;;;20978150;28;20405;-72
2022/12/30 05:45:22;;;;;;;0.20;0.10;;;11.20;99.90;;;;;;20959932;28;20482;-72
2022/12/30 05:55:28;;;;;;;0.20;0.10;;;11.20;99.90;;;;;;20985190;28;20390;-73
2022/12/30 06:05:33;;;;;;;0.20;0.05;;;11.00;99.90;;;;;;20956939;28;20473;-72
2022/12/30 06:15:38;;;;;;;0.20;0.10;;;11.00;99.90;;;;;;20991206;28;20406;-72
2022/12/30 06:25:42;;;;;;;0.20;0.10;;;10.90;99.90;;;;;;20990575;28;20964;-73
2022/12/30 06:35:48;;;;;;;0.20;0.10;;;10.80;99.90;;;;;;20972109;28;20394;-74
2022/12/30 06:45:52;;;;;;;0.20;0.10;;;10.70;99.90;;;;;;20970869;28;20418;-75
2022/12/30 06:55:57;;;;;;;0.20;0.10;;;10.70;99.90;;;;;;20987876;28;20398;-73
2022/12/30 07:06:01;;;;;;;0.20;0.10;;;10.70;99.90;;;;;;20968297;28;20452;-75
2022/12/30 07:16:07;;;;;;;0.20;0.00;;;10.80;99.90;;;;;;20986403;28;20406;-73
2022/12/30 07:26:11;;;;;;;0.20;0.10;;;10.90;99.90;;;;;;20984980;28;20410;-71
2022/12/30 07:36:17;;;;;;;0.20;0.10;;;11.00;99.90;;;;;;20982537;28;20813;-75
2022/12/30 07:46:21;;;;;;;0.20;0.10;;;10.80;99.90;;;;;;20983940;28;20761;-72
2022/12/30 07:56:43;;;;;;;0.20;0.10;;;11.10;99.90;;;;;;20982617;28;20901;-74
2022/12/30 08:06:47;;;;;;;0.20;0.10;;;11.40;99.90;;;;;;20981808;28;20512;-74
2022/12/30 08:17:11;;;;;;;0.20;0.10;;;12.80;99.90;;;;;;20961884;28;20413;-74
2022/12/30 08:27:15;;;;;;;0.20;0.10;;;14.40;99.90;;;;;;20962426;28;20821;-73
2022/12/30 08:37:20;;;;;;;0.20;0.00;;;15.10;99.90;;;;;;20979799;28;20410;-73
2022/12/30 08:47:24;;;;;;;0.20;0.10;;;15.60;99.90;;;;;;20977503;28;20421;-73
2022/12/30 08:57:29;;;;;;;0.20;0.00;;;16.20;99.90;;;;;;20976541;28;20479;-73
2022/12/30 09:07:50;;;;;;;0.20;0.10;;;16.40;99.90;;;;;;20959285;28;20402;-72
2022/12/30 09:18:03;;;;;;;0.20;0.10;;;16.90;99.90;;;;;;20976704;28;20459;-73
2022/12/30 09:28:07;;;;;;;0.20;0.10;;;17.60;99.90;;;;;;20967192;28;20395;-74
2022/12/30 09:38:12;;;;;;;0.20;0.10;;;17.90;99.90;;;;;;20993812;28;21056;-74
2022/12/30 09:48:21;;;;;;;0.20;0.10;;;17.80;99.90;;;;;;20992834;28;20919;-74
2022/12/30 09:58:30;;;;;;;0.20;0.10;;;17.80;99.90;;;;;;20991344;28;20946;-73
2022/12/30 10:09:20;;;;;;;0.20;0.00;;;18.10;99.90;;;;;;20973305;28;20394;-75
2022/12/30 10:19:36;;;;;;;0.20;0.10;;;18.10;99.90;;;;;;20955203;28;20410;-73
2022/12/30 10:29:42;;;;;;;0.20;0.10;;;17.90;99.90;;;;;;20989530;28;20402;-73
2022/12/30 10:39:50;;;;;;;0.20;0.10;;;17.90;99.90;;;;;;20971826;28;20429;-74
2022/12/30 10:50:16;;;;;;;0.20;0.10;;;18.00;99.90;;;;;;20969311;28;20394;-74
2022/12/30 11:00:22;;;;;;;0.20;0.10;;;18.10;99.90;;;;;;20985938;28;20897;-74
2022/12/30 11:10:29;;;;;;;0.20;0.10;;;18.30;99.90;;;;;;20981569;28;20413;-78
2022/12/30 11:20:37;;;;;;;0.20;0.00;;;18.60;99.90;;;;;;20983334;28;20468;-77
2022/12/30 11:30:53;;;;;;;0.20;0.10;;;18.70;99.90;;;;;;20966798;28;20405;-77
2022/12/30 11:41:13;;;;;;;0.20;0.00;;;18.80;99.90;;;;;;20965545;28;20463;-77
2022/12/30 11:51:18;;;;;;;0.20;0.10;;;18.60;99.90;;;;;;20963351;28;20523;-78
2022/12/30 12:01:23;;;;;;;0.20;0.10;;;18.50;99.90;;;;;;20981725;28;20406;-76
2022/12/30 12:11:31;;;;;;;0.20;0.00;;;18.50;99.90;;;;;;20983702;28;20398;-76
2022/12/30 12:21:40;;;;;;;0.20;0.10;;;18.90;99.90;;;;;;20981437;28;20450;-76
2022/12/30 12:32:06;;;;;;;0.20;0.10;;;18.90;99.90;;;;;;20979367;28;20406;-76
2022/12/30 12:42:41;;;;;;;0.20;0.00;;;18.90;99.90;;;;;;20959875;28;20529;-74
2022/12/30 12:52:55;;;;;;;0.20;0.00;;;18.80;99.90;;;;;;20975539;28;20432;-75
2022/12/30 13:03:28;;;;;;;0.20;0.10;;;18.80;99.90;;;;;;20958965;28;20409;-74
2022/12/30 13:13:40;;;;;;;0.20;0.10;;;18.70;99.90;;;;;;20976809;28;20903;-76
2022/12/30 13:23:49;;;;;;;0.20;0.07;;;19.00;99.90;;;;;;20976147;28;20495;-75
2022/12/30 13:34:28;;;;;;;0.20;0.00;;;19.40;99.90;;;;;;20958338;28;20448;-76
2022/12/30 13:44:37;;;;;;;0.20;0.00;;;20.80;99.90;;;;;;20958728;28;20456;-77
2022/12/30 13:54:50;;;;;;;0.20;0.00;;;21.30;99.90;;;;;;20957565;28;20432;-74
2022/12/30 14:04:56;;;;;;;0.20;0.00;;;21.70;99.90;;;;;;20975107;28;20491;-72
2022/12/30 14:15:41;;;;;;;0.20;0.00;;;21.40;99.90;;;;;;20980719;28;20439;-72
2022/12/30 14:25:49;;;;;;;0.20;0.00;;;21.30;99.90;;;;;;20988068;28;20406;-73
2022/12/30 14:46:59;;;;;;;0.20;0.00;;;22.40;99.90;;;;;;20986288;28;20406;-73
2022/12/30 14:57:19;;;;;;;0.20;0.00;;;21.50;99.90;;;;;;20987130;28;20413;-72
2022/12/30 15:07:26;;;;;;;0.20;0.07;;;20.30;99.90;;;;;;20968464;28;20962;-73
2022/12/30 15:17:33;;;;;;;0.20;0.10;;;20.00;99.90;;;;;;20985066;28;20394;-74
2022/12/30 15:27:37;;;;;;;0.20;0.00;;;19.90;99.90;;;;;;20983842;28;20457;-74
2022/12/30 15:37:45;;;;;;;0.20;0.00;;;19.70;99.90;;;;;;20983208;28;20401;-73
2022/12/30 15:47:53;;;;;;;0.20;0.10;;;19.40;99.90;;;;;;20961226;28;20410;-73
2022/12/30 15:58:00;;;;;;;0.20;0.00;;;19.30;99.90;;;;;;20962621;28;20437;-71
2022/12/30 16:08:24;;;;;;;0.20;0.10;;;18.50;99.90;;;;;;20963318;28;20950;-72
2022/12/30 16:18:45;;;;;;;0.20;0.10;;;18.40;99.90;;;;;;20959386;28;20394;-73
2022/12/30 16:28:50;;;;;;;0.20;0.10;;;18.20;99.90;;;;;;20975405;28;20481;-74
2022/12/30 16:38:55;;;;;;;0.20;0.10;;;18.00;99.90;;;;;;20972573;28;20537;-72
2022/12/30 16:48:59;;;;;;;0.20;0.10;;;18.00;99.90;;;;;;20955732;28;20494;-71
2022/12/30 16:59:05;;;;;;;0.20;0.10;;;17.90;99.90;;;;;;20937663;28;20413;-73
2022/12/30 17:10:52;;;;;;;0.20;0.10;;;17.50;99.90;;;;;;20951564;28;21065;-73
2022/12/30 17:19:41;;;;;;;0.20;0.10;;;17.20;99.90;;;;;;20968921;28;20406;-72
2022/12/30 17:29:45;;;;;;;0.20;0.00;;;17.10;99.90;;;;;;20952009;28;20398;-73
2022/12/30 17:39:50;;;;;;;0.20;0.10;;;17.00;99.90;;;;;;20951722;28;20406;-73
2022/12/30 17:49:53;;;;;;;0.20;0.10;;;16.90;99.90;;;;;;20975553;28;20398;-73
2022/12/30 17:59:59;;;;;;;0.20;0.10;;;16.70;99.90;;;;;;20968140;28;20410;-72
2022/12/30 18:10:03;;;;;;;0.20;0.10;;;16.50;99.90;;;;;;20983023;28;20745;-73
2022/12/30 18:20:09;;;;;;;0.20;0.00;;;16.20;99.90;;;;;;20948640;28;20414;-72
2022/12/30 18:30:14;;;;;;;0.20;0.03;;;16.20;99.90;;;;;;20983292;28;20417;-72
2022/12/30 18:40:19;;;;;;;0.20;0.10;;;15.90;99.90;;;;;;20965806;28;20856;-72
2022/12/30 18:50:24;;;;;;;0.20;0.10;;;16.00;99.90;;;;;;20981684;28;20501;-72
2022/12/30 19:00:30;;;;;;;0.20;0.10;;;15.80;99.90;;;;;;20979845;28;20420;-72
2022/12/30 19:10:33;;;;;;;0.20;0.10;;;15.90;99.90;;;;;;20973821;28;20409;-74
2022/12/30 19:20:38;;;;;;;0.20;0.00;;;15.70;99.90;;;;;;20977598;28;20402;-72
2022/12/30 19:30:42;;;;;;;0.20;0.10;;;15.60;99.90;;;;;;20978467;28;20394;-72
2022/12/30 19:40:48;;;;;;;0.20;0.10;;;15.50;99.90;;;;;;20944023;28;20417;-73
2022/12/30 19:50:52;;;;;;;0.20;0.10;;;16.00;99.90;;;;;;20976508;28;20504;-74
2022/12/30 20:00:57;;;;;;;0.20;0.10;;;16.40;99.90;;;;;;20958718;28;20471;-73
2022/12/30 20:11:06;;;;;;;0.20;0.10;;;16.10;99.90;;;;;;20974813;28;20398;-73
2022/12/30 20:21:33;;;;;;;0.20;0.10;;;16.00;99.90;;;;;;20957067;28;20467;-73
2022/12/30 20:31:39;;;;;;;0.20;0.10;;;16.10;99.90;;;;;;20956740;28;20484;-73
2022/12/30 20:41:45;;;;;;;0.20;0.10;;;15.60;99.90;;;;;;20938886;28;20974;-72
2022/12/30 20:51:48;;;;;;;0.20;0.10;;;15.40;99.90;;;;;;20971768;28;20404;-73
2022/12/30 21:01:53;;;;;;;0.20;0.10;;;15.40;99.90;;;;;;20954175;28;20603;-73
2022/12/30 21:11:57;;;;;;;0.20;0.10;;;15.10;99.90;;;;;;20974146;28;20896;-73
2022/12/30 21:22:03;;;;;;;0.20;0.10;;;14.70;99.90;;;;;;20961579;28;20420;-73
2022/12/30 21:32:06;;;;;;;0.20;0.10;;;14.50;99.90;;;;;;20994368;28;20480;-73
2022/12/30 22:03:01;;;;;;;0.20;0.10;;;15.30;99.90;;;;;;20961603;28;20428;-73
2022/12/30 22:13:07;;;;;;;0.20;0.10;;;15.30;99.90;;;;;;20858682;28;20436;-73
2022/12/30 22:23:14;;;;;;;0.20;0.10;;;15.40;99.90;;;;;;20888255;28;20452;-73
2022/12/30 22:33:18;;;;;;;0.20;0.10;;;15.20;99.90;;;;;;20907516;28;20411;-73
2022/12/30 22:43:23;;;;;;;0.20;0.10;;;15.30;99.90;;;;;;20871669;28;20807;-73
2022/12/30 22:53:27;;;;;;;0.20;0.07;;;15.80;99.90;;;;;;20888224;28;20399;-74
2022/12/30 23:03:32;;;;;;;0.20;0.10;;;16.20;99.90;;;;;;20886905;28;20419;-73
2022/12/30 23:34:38;;;;;;;0.20;0.10;;;15.70;99.90;;;;;;20911166;28;20726;-73
2022/12/30 23:44:44;;;;;;;0.20;0.00;;;15.70;99.90;;;;;;20967103;28;20418;-72
2022/12/30 23:54:47;;;;;;;0.20;0.10;;;15.50;99.90;;;;;;20965366;28;20405;-73
